BAW304 EGKK-EGPH
Flight info
| Callsign | BAW304 |
|---|---|
| Flight time | N/A |
| Altitude | 36000 |
| Route | LAM1Z LAM L10 BPK UN601 RIBEL DCT INPIP INPIP1E |
| Aircraft | A319/M-SDE3FGHIRWY/LB1 |
Departure
| Time | 2026-05-07 21:28 |
|---|---|
| Airport | London Gatwick Airport (EGKK) |
Arrival
| Time | N/A |
|---|---|
| Airport | Edinburgh Airport (EGPH) |
| Time | Latitude | Longitude | Altitude | Speed | Heading |
|---|---|---|---|---|---|
| 2026-05-07 20:42 | 51.15488 | -0.16964 | 204 ft | 0 kts | 348° |
| 2026-05-07 21:07 | 51.15483 | -0.16962 | 204 ft | 2 kts | 349° |
| 2026-05-07 21:07 | 51.15465 | -0.16959 | 209 ft | 3 kts | 4° |
| 2026-05-07 21:08 | 51.15445 | -0.16964 | 206 ft | 3 kts | 26° |
| 2026-05-07 21:08 | 51.15430 | -0.16981 | 213 ft | 3 kts | 60° |
| 2026-05-07 21:08 | 51.15426 | -0.16997 | 208 ft | 0 kts | 78° |
| 2026-05-07 21:12 | 51.15426 | -0.16992 | 208 ft | 2 kts | 78° |
| 2026-05-07 21:13 | 51.15432 | -0.16950 | 211 ft | 6 kts | 78° |
| 2026-05-07 21:13 | 51.15442 | -0.16871 | 204 ft | 9 kts | 78° |
| 2026-05-07 21:13 | 51.15447 | -0.16837 | 213 ft | 2 kts | 78° |
| 2026-05-07 21:13 | 51.15452 | -0.16799 | 208 ft | 5 kts | 78° |
| 2026-05-07 21:14 | 51.15442 | -0.16736 | 209 ft | 7 kts | 135° |
| 2026-05-07 21:14 | 51.15390 | -0.16744 | 212 ft | 9 kts | 226° |
| 2026-05-07 21:14 | 51.15370 | -0.16854 | 207 ft | 12 kts | 258° |
| 2026-05-07 21:14 | 51.15350 | -0.17000 | 204 ft | 15 kts | 258° |
| 2026-05-07 21:15 | 51.15325 | -0.17184 | 208 ft | 19 kts | 258° |
| 2026-05-07 21:15 | 51.15304 | -0.17406 | 210 ft | 22 kts | 261° |
| 2026-05-07 21:15 | 51.15271 | -0.17661 | 212 ft | 25 kts | 258° |
| 2026-05-07 21:15 | 51.15231 | -0.17952 | 210 ft | 29 kts | 258° |
| 2026-05-07 21:16 | 51.15187 | -0.18284 | 215 ft | 33 kts | 262° |
| 2026-05-07 21:16 | 51.15140 | -0.18663 | 205 ft | 37 kts | 257° |
| 2026-05-07 21:16 | 51.15081 | -0.19082 | 209 ft | 33 kts | 258° |
| 2026-05-07 21:16 | 51.15030 | -0.19462 | 205 ft | 38 kts | 257° |
| 2026-05-07 21:17 | 51.15005 | -0.19639 | 205 ft | 0 kts | 257° |
| 2026-05-07 21:17 | 51.15005 | -0.19640 | 205 ft | 1 kts | 257° |
| 2026-05-07 21:17 | 51.15001 | -0.19668 | 211 ft | 4 kts | 257° |
| 2026-05-07 21:17 | 51.14992 | -0.19731 | 205 ft | 8 kts | 257° |
| 2026-05-07 21:18 | 51.14978 | -0.19832 | 206 ft | 11 kts | 257° |
| 2026-05-07 21:18 | 51.14959 | -0.19974 | 204 ft | 15 kts | 258° |
| 2026-05-07 21:18 | 51.14934 | -0.20158 | 203 ft | 19 kts | 258° |
| 2026-05-07 21:18 | 51.14903 | -0.20379 | 203 ft | 22 kts | 257° |
| 2026-05-07 21:19 | 51.14884 | -0.20521 | 212 ft | 14 kts | 257° |
| 2026-05-07 21:19 | 51.14875 | -0.20581 | 208 ft | 1 kts | 257° |
| 2026-05-07 21:19 | 51.14872 | -0.20606 | 203 ft | 4 kts | 257° |
| 2026-05-07 21:19 | 51.14864 | -0.20666 | 203 ft | 7 kts | 257° |
| 2026-05-07 21:20 | 51.14850 | -0.20761 | 207 ft | 11 kts | 257° |
| 2026-05-07 21:20 | 51.14832 | -0.20893 | 204 ft | 14 kts | 257° |
| 2026-05-07 21:20 | 51.14809 | -0.21056 | 211 ft | 17 kts | 257° |
| 2026-05-07 21:20 | 51.14773 | -0.21247 | 204 ft | 19 kts | 257° |
| 2026-05-07 21:21 | 51.14761 | -0.21335 | 204 ft | 0 kts | 258° |
| 2026-05-07 21:23 | 51.14761 | -0.21339 | 204 ft | 2 kts | 258° |
| 2026-05-07 21:23 | 51.14756 | -0.21373 | 208 ft | 5 kts | 251° |
| 2026-05-07 21:24 | 51.14720 | -0.21403 | 207 ft | 8 kts | 183° |
| 2026-05-07 21:24 | 51.14664 | -0.21365 | 211 ft | 11 kts | 135° |
| 2026-05-07 21:24 | 51.14631 | -0.21329 | 207 ft | 0 kts | 160° |
| 2026-05-07 21:24 | 51.14618 | -0.21325 | 204 ft | 3 kts | 170° |
| 2026-05-07 21:25 | 51.14609 | -0.21323 | 204 ft | 0 kts | 172° |
| 2026-05-07 21:26 | 51.14608 | -0.21323 | 204 ft | 0 kts | 172° |
| 2026-05-07 21:26 | 51.14594 | -0.21319 | 207 ft | 4 kts | 172° |
| 2026-05-07 21:27 | 51.14546 | -0.21282 | 209 ft | 12 kts | 141° |
| 2026-05-07 21:27 | 51.14526 | -0.21122 | 214 ft | 19 kts | 76° |
| 2026-05-07 21:27 | 51.14560 | -0.20877 | 204 ft | 27 kts | 78° |
| 2026-05-07 21:27 | 51.14651 | -0.20209 | 210 ft | 107 kts | 77° |
| 2026-05-07 21:28 | 51.14868 | -0.18649 | 414 ft | 162 kts | 77° |
| 2026-05-07 21:28 | 51.15029 | -0.17437 | 872 ft | 171 kts | 78° |
| 2026-05-07 21:28 | 51.15378 | -0.14792 | 1819 ft | 197 kts | 77° |
| 2026-05-07 21:28 | 51.15587 | -0.13350 | 2313 ft | 209 kts | 76° |
| 2026-05-07 21:29 | 51.15935 | -0.11103 | 3007 ft | 229 kts | 75° |
| 2026-05-07 21:29 | 51.16402 | -0.08441 | 3742 ft | 254 kts | 73° |
| 2026-05-07 21:29 | 51.17262 | -0.04936 | 4802 ft | 255 kts | 60° |
| 2026-05-07 21:29 | 51.18236 | -0.02598 | 4978 ft | 252 kts | 53° |
| 2026-05-07 21:30 | 51.18952 | -0.01153 | 4982 ft | 248 kts | 50° |
| 2026-05-07 21:30 | 51.20058 | 0.00955 | 5619 ft | 244 kts | 50° |
| 2026-05-07 21:30 | 51.21126 | 0.02992 | 6329 ft | 246 kts | 50° |
| 2026-05-07 21:30 | 51.22208 | 0.05102 | 7054 ft | 249 kts | 51° |
| 2026-05-07 21:31 | 51.23314 | 0.07306 | 7806 ft | 252 kts | 51° |
| 2026-05-07 21:31 | 51.24387 | 0.09521 | 8525 ft | 254 kts | 55° |
| 2026-05-07 21:31 | 51.25137 | 0.12082 | 9260 ft | 257 kts | 74° |
| 2026-05-07 21:31 | 51.25491 | 0.14882 | 10007 ft | 258 kts | 79° |
| 2026-05-07 21:32 | 51.25697 | 0.16655 | 10461 ft | 259 kts | 79° |